createdAt,value
2023-01-24T00:01:25.483Z,23.50
2023-01-24T00:03:53.931Z,20.90
2023-01-24T00:06:22.233Z,25.10
2023-01-24T00:08:50.720Z,23.70
2023-01-24T00:11:19.453Z,26.70
2023-01-24T00:13:47.981Z,22.70
2023-01-24T00:16:19.468Z,21.40
2023-01-24T00:18:49.682Z,22.40
2023-01-24T00:21:23.120Z,25.90
2023-01-24T00:26:22.301Z,23.20
2023-01-24T00:28:52.764Z,24.50
2023-01-24T00:31:21.275Z,25.00
2023-01-24T00:33:50.172Z,20.70
2023-01-24T00:36:21.609Z,23.10
2023-01-24T00:38:50.054Z,28.40
2023-01-24T00:41:18.491Z,28.60
2023-01-24T00:43:47.256Z,25.60
2023-01-24T00:46:15.791Z,26.10
2023-01-24T00:48:44.697Z,16.50
2023-01-24T00:51:15.827Z,23.60
2023-01-24T00:53:44.302Z,27.10
2023-01-24T00:56:12.861Z,30.30
2023-01-24T00:58:41.602Z,23.00
2023-01-24T01:01:11.085Z,19.30
2023-01-24T01:03:39.661Z,21.90
2023-01-24T01:06:11.340Z,26.50
2023-01-24T01:08:39.930Z,37.40
2023-01-24T01:11:10.873Z,26.80
2023-01-24T01:13:39.736Z,22.70
2023-01-24T01:16:11.623Z,26.80
2023-01-24T01:18:40.299Z,26.40
2023-01-24T01:21:08.794Z,35.60
2023-01-24T01:23:37.261Z,23.80
2023-01-24T01:26:07.545Z,19.70
2023-01-24T01:28:36.607Z,22.40
2023-01-24T01:31:05.414Z,21.30
2023-01-24T01:33:33.942Z,24.30
2023-01-24T01:36:02.762Z,16.60
2023-01-24T01:38:32.550Z,22.10
2023-01-24T01:41:01.153Z,26.00
2023-01-24T01:43:30.537Z,23.90
2023-01-24T01:46:07.382Z,20.10
2023-01-24T01:48:45.166Z,21.30
2023-01-24T01:51:22.867Z,23.00
2023-01-24T01:54:05.026Z,22.10
2023-01-24T01:56:59.236Z,25.10
2023-01-24T01:59:29.503Z,24.50
2023-01-24T02:01:58.846Z,27.60
2023-01-24T02:04:31.538Z,29.40
2023-01-24T02:07:15.782Z,25.50
2023-01-24T02:09:45.690Z,23.10
2023-01-24T02:12:17.267Z,25.50
2023-01-24T02:15:05.157Z,21.80
2023-01-24T02:17:33.940Z,31.00
2023-01-24T02:20:08.539Z,27.00
2023-01-24T02:22:47.042Z,30.30
2023-01-24T02:25:24.959Z,30.50
2023-01-24T02:27:53.393Z,28.50
2023-01-24T02:30:22.638Z,32.80
2023-01-24T02:32:51.530Z,34.20
2023-01-24T02:35:31.141Z,26.90
2023-01-24T02:38:00.358Z,26.40
2023-01-24T02:40:29.228Z,22.80
2023-01-24T02:43:02.838Z,25.70
2023-01-24T02:45:31.855Z,19.60
2023-01-24T02:48:00.262Z,20.80
2023-01-24T02:50:50.641Z,20.00
2023-01-24T02:53:32.740Z,22.10
2023-01-24T02:56:25.191Z,27.70
2023-01-24T02:58:53.695Z,16.90
2023-01-24T03:01:22.987Z,19.50
2023-01-24T03:03:54.644Z,21.60
2023-01-24T03:06:23.137Z,21.90
2023-01-24T03:08:52.343Z,21.70
2023-01-24T03:11:25.292Z,23.70
2023-01-24T03:14:12.552Z,22.90
2023-01-24T03:16:59.652Z,19.70
2023-01-24T03:19:47.158Z,22.30
2023-01-24T03:22:34.404Z,21.90
2023-01-24T03:25:24.071Z,23.70
2023-01-24T03:28:11.703Z,23.20
2023-01-24T03:30:58.799Z,18.50
2023-01-24T03:33:46.918Z,15.00
2023-01-24T03:36:20.763Z,28.10
2023-01-24T03:39:12.826Z,24.40
2023-01-24T03:41:43.036Z,23.80
2023-01-24T03:44:13.085Z,33.30
2023-01-24T03:46:41.719Z,31.80
2023-01-24T03:49:12.644Z,49.60
2023-01-24T03:52:01.129Z,37.40
2023-01-24T03:54:29.962Z,54.40
2023-01-24T03:57:03.633Z,62.80
2023-01-24T03:59:32.280Z,51.30
2023-01-24T04:02:01.283Z,50.60
2023-01-24T04:04:52.834Z,81.80
2023-01-24T04:07:26.923Z,60.50
2023-01-24T04:10:07.347Z,86.50
2023-01-24T04:12:41.874Z,49.20
2023-01-24T04:15:14.694Z,67.70
2023-01-24T04:17:44.531Z,33.30
2023-01-24T04:20:13.551Z,38.30
2023-01-24T04:22:42.386Z,33.40
2023-01-24T04:25:11.288Z,30.00
2023-01-24T04:27:40.151Z,31.30
2023-01-24T04:30:16.000Z,20.70
2023-01-24T04:32:45.764Z,28.40
2023-01-24T04:35:34.491Z,21.20
2023-01-24T04:38:03.109Z,31.60
2023-01-24T04:40:59.698Z,25.80
2023-01-24T04:43:28.371Z,24.90
2023-01-24T04:45:59.307Z,27.80
2023-01-24T04:48:34.370Z,34.00
2023-01-24T04:51:03.250Z,25.10
2023-01-24T04:53:32.049Z,36.10
2023-01-24T04:56:03.117Z,18.20
2023-01-24T04:58:33.735Z,19.20
2023-01-24T05:01:04.626Z,23.40
2023-01-24T05:03:36.492Z,30.40
2023-01-24T05:06:05.178Z,21.20
2023-01-24T05:08:33.740Z,24.80
2023-01-24T05:11:04.765Z,26.50
2023-01-24T05:13:36.771Z,17.10
2023-01-24T05:16:05.537Z,20.20
2023-01-24T05:18:34.371Z,20.30
2023-01-24T05:21:10.243Z,22.50
2023-01-24T05:23:39.869Z,22.10
2023-01-24T05:26:08.598Z,22.70
2023-01-24T05:28:37.519Z,27.20
2023-01-24T05:31:08.574Z,24.50
2023-01-24T05:33:37.188Z,20.80
2023-01-24T05:36:10.659Z,18.60
2023-01-24T05:38:39.172Z,18.00
2023-01-24T05:41:10.031Z,22.50
2023-01-24T05:43:39.590Z,21.00
2023-01-24T05:46:11.040Z,18.20
2023-01-24T05:48:43.797Z,19.50
2023-01-24T05:51:13.989Z,25.90
2023-01-24T05:53:43.231Z,18.80
2023-01-24T05:56:19.411Z,25.60
2023-01-24T05:58:48.442Z,19.40
2023-01-24T06:01:20.139Z,22.70
2023-01-24T06:03:50.729Z,17.20
2023-01-24T06:06:24.185Z,18.20
2023-01-24T06:08:54.324Z,25.10
2023-01-24T06:11:27.083Z,16.90
2023-01-24T06:14:05.663Z,29.20
2023-01-24T06:16:34.682Z,28.70
2023-01-24T06:19:03.539Z,22.70
2023-01-24T06:21:48.165Z,25.70
2023-01-24T06:24:21.528Z,24.10
2023-01-24T06:27:01.846Z,25.90
2023-01-24T06:29:32.949Z,25.70
2023-01-24T06:32:23.673Z,24.30
2023-01-24T06:35:12.812Z,49.10
2023-01-24T06:37:49.249Z,43.50
2023-01-24T06:40:24.141Z,134.40
2023-01-24T06:42:53.583Z,52.20
2023-01-24T06:45:22.680Z,239.30
2023-01-24T06:47:51.300Z,55.90
2023-01-24T06:50:21.478Z,46.50
2023-01-24T06:52:50.333Z,32.10
2023-01-24T06:55:19.155Z,27.90
2023-01-24T06:57:48.959Z,23.00
2023-01-24T07:00:18.010Z,27.70
2023-01-24T07:02:46.642Z,28.40
2023-01-24T07:05:15.156Z,24.90
2023-01-24T07:07:43.806Z,28.20
2023-01-24T07:10:13.071Z,22.20
2023-01-24T07:12:43.658Z,18.60
2023-01-24T07:15:12.220Z,20.60
2023-01-24T07:17:41.372Z,45.30
2023-01-24T07:20:11.318Z,66.90
2023-01-24T07:22:40.233Z,35.80
2023-01-24T07:25:16.965Z,33.20
2023-01-24T07:27:45.793Z,44.50
2023-01-24T07:30:14.777Z,39.20
2023-01-24T07:32:43.207Z,38.50
2023-01-24T07:35:11.694Z,31.40
2023-01-24T07:37:40.475Z,29.40
2023-01-24T07:40:10.010Z,26.60
2023-01-24T07:42:38.818Z,35.90
2023-01-24T07:45:07.637Z,20.90
2023-01-24T07:47:36.630Z,23.40
2023-01-24T07:50:05.756Z,35.00
2023-01-24T07:52:34.153Z,26.10
2023-01-24T07:55:02.614Z,38.10
2023-01-24T07:57:31.171Z,26.00
2023-01-24T07:59:59.784Z,21.60
2023-01-24T08:02:28.584Z,21.00
2023-01-24T08:04:57.038Z,31.30
2023-01-24T08:07:25.522Z,22.40
2023-01-24T08:09:54.042Z,25.50
2023-01-24T08:12:23.154Z,20.30
2023-01-24T08:14:51.669Z,26.50
2023-01-24T08:17:22.804Z,29.00
2023-01-24T08:19:56.828Z,30.10
2023-01-24T08:22:26.958Z,34.60
2023-01-24T08:24:57.912Z,46.90
2023-01-24T08:27:26.395Z,40.30
2023-01-24T08:29:55.591Z,31.90
2023-01-24T08:32:27.075Z,23.70
2023-01-24T08:34:55.614Z,24.10
2023-01-24T08:37:24.980Z,18.10
2023-01-24T08:39:54.187Z,20.20
2023-01-24T08:42:26.085Z,24.10
2023-01-24T08:44:54.865Z,23.40
2023-01-24T08:47:23.461Z,21.10
2023-01-24T08:49:51.901Z,21.00
2023-01-24T08:52:20.781Z,24.40
2023-01-24T08:54:50.439Z,29.70
2023-01-24T08:57:18.884Z,18.70
2023-01-24T08:59:47.622Z,22.10
2023-01-24T09:02:17.500Z,33.10
2023-01-24T09:04:48.071Z,22.70
2023-01-24T09:07:16.535Z,18.10
2023-01-24T09:09:45.369Z,35.50
2023-01-24T09:12:13.700Z,27.30
2023-01-24T09:14:42.046Z,24.60
2023-01-24T09:17:10.465Z,30.60
2023-01-24T09:19:40.189Z,20.70
2023-01-24T09:22:08.629Z,21.30
2023-01-24T09:24:37.030Z,28.00
2023-01-24T09:27:07.208Z,23.70
2023-01-24T09:29:36.779Z,21.70
2023-01-24T09:32:06.735Z,35.80
2023-01-24T09:34:35.262Z,31.00
2023-01-24T09:37:04.895Z,26.40
2023-01-24T09:39:34.046Z,27.30
2023-01-24T09:42:29.418Z,51.20
2023-01-24T09:45:18.245Z,61.50
2023-01-24T09:47:55.216Z,40.00
2023-01-24T09:50:30.553Z,35.60
2023-01-24T09:52:59.110Z,40.20
2023-01-24T09:55:36.317Z,37.00
2023-01-24T09:58:31.989Z,27.70
2023-01-24T10:01:03.241Z,27.30
2023-01-24T10:03:33.740Z,30.90
2023-01-24T10:06:08.879Z,40.80
2023-01-24T10:08:55.764Z,39.20
2023-01-24T10:11:50.133Z,39.60
2023-01-24T10:14:40.529Z,29.30
2023-01-24T10:17:14.861Z,31.80
2023-01-24T10:20:02.325Z,31.30
2023-01-24T10:22:40.161Z,30.30
2023-01-24T10:25:28.970Z,28.80
2023-01-24T10:27:59.075Z,34.70
2023-01-24T10:30:31.387Z,24.60
2023-01-24T10:33:01.962Z,40.70
2023-01-24T10:35:37.507Z,34.00
2023-01-24T10:38:07.205Z,28.30
2023-01-24T10:40:36.455Z,36.10
2023-01-24T10:43:06.262Z,37.20
2023-01-24T10:45:34.525Z,31.50
2023-01-24T10:48:07.714Z,46.60
2023-01-24T10:50:41.921Z,37.30
2023-01-24T10:53:30.490Z,31.40
2023-01-24T10:56:00.992Z,30.40
2023-01-24T10:58:55.942Z,32.80
2023-01-24T11:01:45.885Z,29.30
2023-01-24T11:04:28.935Z,31.30
2023-01-24T11:06:57.764Z,29.30
2023-01-24T11:09:32.162Z,35.70
2023-01-24T11:12:02.644Z,34.60
2023-01-24T11:14:36.007Z,32.60
2023-01-24T11:17:26.776Z,38.10
2023-01-24T11:19:59.844Z,37.50
2023-01-24T11:22:35.910Z,37.60
2023-01-24T11:25:16.510Z,27.50
2023-01-24T11:27:47.239Z,37.50
2023-01-24T11:30:21.178Z,34.40
2023-01-24T11:33:16.169Z,38.10
2023-01-24T11:35:46.841Z,26.20
2023-01-24T11:38:25.171Z,102.50
2023-01-24T11:40:57.930Z,60.70
2023-01-24T11:43:48.676Z,117.00
2023-01-24T11:46:54.974Z,56.30
2023-01-24T11:49:31.982Z,55.00
2023-01-24T11:52:40.628Z,34.10
2023-01-24T11:55:50.360Z,37.00
2023-01-24T11:58:50.453Z,39.70
2023-01-24T12:01:27.848Z,32.40
2023-01-24T12:04:33.957Z,39.30
2023-01-24T12:07:16.532Z,40.40
2023-01-24T12:09:50.283Z,33.50
2023-01-24T12:12:55.010Z,37.40
2023-01-24T12:15:25.203Z,43.20
2023-01-24T12:18:34.038Z,54.10
2023-01-24T12:21:10.030Z,45.40
2023-01-24T12:23:53.174Z,38.40
2023-01-24T12:26:26.801Z,35.60
2023-01-24T12:31:55.603Z,27.70
2023-01-24T12:34:47.462Z,31.10
2023-01-24T12:37:22.156Z,38.10
2023-01-24T12:40:13.713Z,40.80
2023-01-24T12:43:01.387Z,33.90
2023-01-24T12:45:38.291Z,32.40
2023-01-24T12:48:50.084Z,38.20
2023-01-24T12:51:29.016Z,41.70
2023-01-24T12:54:05.902Z,35.10
2023-01-24T12:57:02.650Z,37.90
2023-01-24T12:59:32.183Z,30.40
2023-01-24T13:02:29.650Z,34.40
2023-01-24T13:04:59.507Z,30.90
2023-01-24T13:07:33.730Z,31.60
2023-01-24T13:10:14.676Z,34.20
2023-01-24T13:12:48.621Z,73.20
2023-01-24T13:15:26.650Z,99.80
2023-01-24T13:17:58.201Z,58.60
2023-01-24T13:21:01.076Z,35.40
2023-01-24T13:23:31.175Z,43.10
2023-01-24T13:26:12.907Z,35.90
2023-01-24T13:28:50.663Z,50.80
2023-01-24T13:31:44.253Z,44.70
2023-01-24T13:34:16.452Z,50.70
2023-01-24T13:36:48.879Z,44.40
2023-01-24T13:39:43.459Z,49.70
2023-01-24T13:42:26.863Z,49.30
2023-01-24T13:44:55.579Z,36.40
2023-01-24T13:47:26.023Z,42.20
2023-01-24T13:49:54.467Z,51.50
2023-01-24T13:52:38.094Z,54.60
2023-01-24T13:55:25.328Z,46.60
2023-01-24T13:58:10.640Z,46.40
2023-01-24T14:00:48.791Z,49.10
2023-01-24T14:03:29.048Z,54.10
2023-01-24T14:06:08.949Z,59.80
2023-01-24T14:08:39.755Z,53.70
2023-01-24T14:11:09.072Z,58.70
2023-01-24T14:13:44.090Z,50.20
2023-01-24T14:16:38.745Z,49.80
2023-01-24T14:19:14.882Z,48.10
2023-01-24T14:22:08.121Z,58.00
2023-01-24T14:24:50.138Z,175.50
2023-01-24T14:27:40.387Z,304.30
2023-01-24T14:30:14.841Z,95.80
2023-01-24T14:32:44.992Z,76.20
2023-01-24T14:35:29.739Z,56.40
2023-01-24T14:38:17.991Z,44.80
2023-01-24T14:40:50.603Z,47.70
2023-01-24T14:43:19.131Z,35.10
2023-01-24T14:45:48.345Z,41.80
2023-01-24T14:48:23.855Z,40.70
2023-01-24T14:51:22.792Z,37.30
2023-01-24T14:53:53.272Z,46.80
2023-01-24T14:56:21.984Z,37.40
2023-01-24T14:58:53.777Z,38.70
2023-01-24T15:01:28.010Z,48.10
2023-01-24T15:03:58.007Z,47.20
2023-01-24T15:06:28.728Z,41.80
2023-01-24T15:09:01.340Z,45.00
2023-01-24T15:11:35.741Z,61.20
2023-01-24T15:14:06.549Z,49.30
2023-01-24T15:16:41.026Z,69.10
2023-01-24T15:19:22.138Z,58.00
2023-01-24T15:21:51.099Z,71.10
2023-01-24T15:24:20.171Z,51.70
2023-01-24T15:26:49.136Z,72.50
2023-01-24T15:29:40.212Z,68.60
2023-01-24T15:32:36.241Z,83.30
2023-01-24T15:35:27.365Z,54.40
2023-01-24T15:38:16.917Z,39.20
2023-01-24T15:40:56.163Z,36.10
2023-01-24T15:43:48.715Z,51.60
2023-01-24T15:46:55.495Z,66.10
2023-01-24T15:49:36.058Z,27.70
2023-01-24T15:52:08.979Z,29.50
2023-01-24T15:54:41.754Z,61.10
2023-01-24T15:57:24.642Z,33.40
2023-01-24T16:00:09.899Z,63.00
2023-01-24T16:02:39.044Z,57.80
2023-01-24T16:05:14.443Z,56.50
2023-01-24T16:07:43.009Z,31.10
2023-01-24T16:10:15.812Z,20.80
2023-01-24T16:12:44.738Z,14.70
2023-01-24T16:15:18.405Z,16.30
2023-01-24T16:20:19.996Z,19.40
2023-01-24T16:25:17.604Z,16.60
2023-01-24T16:27:46.202Z,18.80
2023-01-24T16:30:16.892Z,16.20
2023-01-24T16:32:46.006Z,24.60
2023-01-24T16:35:14.842Z,16.90
2023-01-24T16:37:43.938Z,13.80
2023-01-24T16:40:13.586Z,30.60
2023-01-24T16:42:43.545Z,26.20
2023-01-24T16:45:19.572Z,28.00
2023-01-24T16:47:48.173Z,22.00
2023-01-24T16:50:17.724Z,13.90
2023-01-24T16:52:46.876Z,24.30
2023-01-24T16:55:15.189Z,22.20
2023-01-24T16:57:45.237Z,25.90
2023-01-24T17:00:14.659Z,15.60
2023-01-24T17:02:44.308Z,21.40
2023-01-24T17:05:14.551Z,22.30
2023-01-24T17:07:43.791Z,20.90
2023-01-24T17:10:12.677Z,24.80
2023-01-24T17:12:41.287Z,28.20
2023-01-24T17:15:13.067Z,18.80
2023-01-24T17:17:41.948Z,19.40
2023-01-24T17:20:11.487Z,19.30
2023-01-24T17:22:40.192Z,15.00
2023-01-24T17:25:08.964Z,14.80
2023-01-24T17:27:39.551Z,19.00
2023-01-24T17:30:08.572Z,16.80
2023-01-24T17:32:40.434Z,17.80
2023-01-24T17:35:09.153Z,21.40
2023-01-24T17:37:38.528Z,15.80
2023-01-24T17:40:08.285Z,16.70
2023-01-24T17:42:37.047Z,17.50
2023-01-24T17:45:05.907Z,20.50
2023-01-24T17:47:34.910Z,22.60
2023-01-24T17:50:03.949Z,18.30
2023-01-24T17:52:34.104Z,21.10
2023-01-24T17:55:03.222Z,15.40
2023-01-24T17:57:32.297Z,14.90
2023-01-24T18:00:00.863Z,18.50
2023-01-24T18:02:30.198Z,21.30
2023-01-24T18:04:59.182Z,31.30
2023-01-24T18:07:28.319Z,23.60
2023-01-24T18:09:56.781Z,32.90
2023-01-24T18:12:25.221Z,47.80
2023-01-24T18:14:53.621Z,68.50
2023-01-24T18:17:22.144Z,48.40
2023-01-24T18:19:53.239Z,48.60
2023-01-24T18:22:21.609Z,46.50
2023-01-24T18:24:50.002Z,48.00
2023-01-24T18:27:20.571Z,45.80
2023-01-24T18:29:49.637Z,48.80
2023-01-24T18:32:19.291Z,41.60
2023-01-24T18:34:47.737Z,49.50
2023-01-24T18:37:16.156Z,53.50
2023-01-24T18:39:45.646Z,57.90
2023-01-24T18:42:14.442Z,52.20
2023-01-24T18:44:45.646Z,52.20
2023-01-24T18:47:13.912Z,53.60
2023-01-24T18:49:43.705Z,52.30
2023-01-24T18:52:12.365Z,65.10
2023-01-24T18:54:41.822Z,58.40
2023-01-24T18:57:10.392Z,61.40
2023-01-24T18:59:38.799Z,60.80
2023-01-24T19:02:07.356Z,56.60
2023-01-24T19:04:36.407Z,61.60
2023-01-24T19:07:05.287Z,56.40
2023-01-24T19:09:33.981Z,55.40
2023-01-24T19:12:02.962Z,60.00
2023-01-24T19:14:31.948Z,63.60
2023-01-24T19:17:01.011Z,51.70
2023-01-24T19:19:29.791Z,58.30
2023-01-24T19:21:58.464Z,57.50
2023-01-24T19:24:27.817Z,54.60
2023-01-24T19:26:56.456Z,52.00
2023-01-24T19:29:24.910Z,54.40
2023-01-24T19:31:53.681Z,57.20
2023-01-24T19:34:22.182Z,47.10
2023-01-24T19:36:50.564Z,52.90
2023-01-24T19:39:22.091Z,52.90
2023-01-24T19:41:51.533Z,62.70
2023-01-24T19:44:21.596Z,68.20
2023-01-24T19:46:50.888Z,62.20
2023-01-24T19:49:19.307Z,63.90
2023-01-24T19:51:50.947Z,55.90
2023-01-24T19:54:20.228Z,73.40
2023-01-24T19:56:48.968Z,66.40
2023-01-24T19:59:17.396Z,62.60
2023-01-24T20:01:45.945Z,73.20
2023-01-24T20:04:23.880Z,75.10
2023-01-24T20:06:54.412Z,72.40
2023-01-24T20:09:23.795Z,77.90
2023-01-24T20:11:53.389Z,91.40
2023-01-24T20:14:22.464Z,80.80
2023-01-24T20:16:50.937Z,85.40
2023-01-24T20:19:28.593Z,89.80
2023-01-24T20:22:01.170Z,90.70
2023-01-24T20:24:30.190Z,73.90
2023-01-24T20:26:59.006Z,65.00
2023-01-24T20:29:27.522Z,73.60
2023-01-24T20:32:02.240Z,74.20
2023-01-24T20:34:35.778Z,71.20
2023-01-24T20:37:04.399Z,68.60
2023-01-24T20:39:32.928Z,69.70
2023-01-24T20:42:05.698Z,56.60
2023-01-24T20:44:34.457Z,68.40
2023-01-24T20:47:02.949Z,48.50
2023-01-24T20:49:31.921Z,53.90
2023-01-24T20:52:00.496Z,43.30
2023-01-24T20:54:29.217Z,48.00
2023-01-24T20:57:01.000Z,52.90
2023-01-24T20:59:29.813Z,47.20
2023-01-24T21:01:58.390Z,41.00
2023-01-24T21:04:29.370Z,48.50
2023-01-24T21:06:58.070Z,49.00
2023-01-24T21:09:26.544Z,52.20
2023-01-24T21:11:55.037Z,60.00
2023-01-24T21:14:24.657Z,57.50
2023-01-24T21:16:53.422Z,53.80
2023-01-24T21:19:23.299Z,97.40
2023-01-24T21:21:51.857Z,75.70
2023-01-24T21:24:32.342Z,148.60
2023-01-24T21:27:02.342Z,202.00
2023-01-24T21:29:30.900Z,102.60
2023-01-24T21:31:59.524Z,87.20
2023-01-24T21:34:28.635Z,74.80
2023-01-24T21:36:57.141Z,70.60
2023-01-24T21:39:26.594Z,64.00
2023-01-24T21:41:55.374Z,62.80
2023-01-24T21:44:25.150Z,59.70
2023-01-24T21:46:54.072Z,50.90
2023-01-24T21:49:22.825Z,45.30
2023-01-24T21:51:52.964Z,43.40
2023-01-24T21:54:23.343Z,44.70
2023-01-24T21:57:29.501Z,47.20
2023-01-24T22:00:08.819Z,44.10
2023-01-24T22:02:44.243Z,45.80
2023-01-24T22:05:13.049Z,41.90
2023-01-24T22:07:41.631Z,45.30
2023-01-24T22:10:13.436Z,40.30
2023-01-24T22:12:42.116Z,45.00
2023-01-24T22:15:15.911Z,39.30
2023-01-24T22:17:44.875Z,46.30
2023-01-24T22:20:17.631Z,47.50
2023-01-24T22:22:58.318Z,37.10
2023-01-24T22:25:55.774Z,41.80
2023-01-24T22:28:24.888Z,37.70
2023-01-24T22:30:53.908Z,37.90
2023-01-24T22:33:22.577Z,40.90
2023-01-24T22:35:53.031Z,40.70
2023-01-24T22:38:27.408Z,27.80
2023-01-24T22:40:56.511Z,34.70
2023-01-24T22:43:25.131Z,29.50
2023-01-24T22:45:53.570Z,33.20
2023-01-24T22:48:22.744Z,37.00
2023-01-24T22:50:51.329Z,36.70
2023-01-24T22:53:19.774Z,31.70
2023-01-24T22:55:48.167Z,34.60
2023-01-24T22:58:16.544Z,31.80
2023-01-24T23:00:45.004Z,33.70
2023-01-24T23:03:13.467Z,33.30
2023-01-24T23:05:42.217Z,33.20
2023-01-24T23:08:11.700Z,28.60
2023-01-24T23:10:40.420Z,31.30
2023-01-24T23:13:27.707Z,35.90
2023-01-24T23:16:12.238Z,35.20
2023-01-24T23:18:59.954Z,33.30
2023-01-24T23:21:28.512Z,32.00
2023-01-24T23:24:01.042Z,35.40
2023-01-24T23:26:30.929Z,33.00
2023-01-24T23:29:38.734Z,28.60
2023-01-24T23:32:20.581Z,30.90
2023-01-24T23:34:56.413Z,34.50
2023-01-24T23:37:26.551Z,39.10
2023-01-24T23:39:56.216Z,38.10
2023-01-24T23:42:24.690Z,29.40
2023-01-24T23:44:56.545Z,46.40
2023-01-24T23:47:25.009Z,45.00
2023-01-24T23:49:53.305Z,34.80
2023-01-24T23:52:22.101Z,34.10
2023-01-24T23:54:50.637Z,32.60
2023-01-24T23:57:19.267Z,32.80
2023-01-24T23:59:47.678Z,39.30
